createdAt,value
2016-12-17T00:00:17.907Z,1027.24
2016-12-17T00:00:44.005Z,1027.25
2016-12-17T00:01:10.118Z,1027.23
2016-12-17T00:01:36.242Z,1027.23
2016-12-17T00:02:02.342Z,1027.23
2016-12-17T00:02:28.448Z,1027.22
2016-12-17T00:02:54.569Z,1027.2
2016-12-17T00:03:20.683Z,1027.25
2016-12-17T00:03:46.786Z,1027.23
2016-12-17T00:04:12.906Z,1027.27
2016-12-17T00:04:39.020Z,1027.23
2016-12-17T00:05:05.139Z,1027.26
2016-12-17T00:05:31.244Z,1027.27
2016-12-17T00:05:57.355Z,1027.26
2016-12-17T00:06:23.480Z,1027.24
2016-12-17T00:06:49.588Z,1027.29
2016-12-17T00:07:15.693Z,1027.23
2016-12-17T00:07:41.816Z,1027.29
2016-12-17T00:08:07.927Z,1027.28
2016-12-17T00:08:34.029Z,1027.26
2016-12-17T00:09:00.143Z,1027.26
2016-12-17T00:09:26.258Z,1027.22
2016-12-17T00:09:52.371Z,1027.26
2016-12-17T00:10:18.484Z,1027.2
2016-12-17T00:10:44.593Z,1027.22
2016-12-17T00:11:10.713Z,1027.25
2016-12-17T00:11:36.822Z,1027.22
2016-12-17T00:12:02.923Z,1027.22
2016-12-17T00:12:29.046Z,1027.27
2016-12-17T00:12:55.158Z,1027.28
2016-12-17T00:13:21.260Z,1027.28
2016-12-17T00:13:47.375Z,1027.27
2016-12-17T00:14:13.500Z,1027.28
2016-12-17T00:14:39.599Z,1027.29
2016-12-17T00:15:05.711Z,1027.29
2016-12-17T00:15:31.880Z,1027.34
2016-12-17T00:15:57.986Z,1027.35
2016-12-17T00:16:24.103Z,1027.33
2016-12-17T00:16:50.221Z,1027.33
2016-12-17T00:17:16.332Z,1027.3
2016-12-17T00:17:42.434Z,1027.29
2016-12-17T00:18:08.561Z,1027.31
2016-12-17T00:18:34.675Z,1027.27
2016-12-17T00:19:00.783Z,1027.31
2016-12-17T00:19:26.898Z,1027.28
2016-12-17T00:19:53.018Z,1027.29
2016-12-17T00:20:19.126Z,1027.27
2016-12-17T00:20:45.243Z,1027.27
2016-12-17T00:21:11.353Z,1027.28
2016-12-17T00:21:37.471Z,1027.29
2016-12-17T00:22:03.583Z,1027.3
2016-12-17T00:22:29.689Z,1027.29
2016-12-17T00:22:55.812Z,1027.31
2016-12-17T00:23:21.927Z,1027.31
2016-12-17T00:23:48.061Z,1027.32
2016-12-17T00:24:14.175Z,1027.3
2016-12-17T00:24:40.297Z,1027.3
2016-12-17T00:25:06.401Z,1027.3
2016-12-17T00:25:32.513Z,1027.27
2016-12-17T00:25:58.634Z,1027.25
2016-12-17T00:26:24.738Z,1027.27
2016-12-17T00:26:50.854Z,1027.29
2016-12-17T00:27:16.966Z,1027.27
2016-12-17T00:27:43.082Z,1027.31
2016-12-17T00:28:09.206Z,1027.31
2016-12-17T00:28:35.303Z,1027.33
2016-12-17T00:29:01.421Z,1027.32
2016-12-17T00:29:27.547Z,1027.34
2016-12-17T00:29:53.653Z,1027.31
2016-12-17T00:30:19.799Z,1027.33
2016-12-17T00:30:45.917Z,1027.32
2016-12-17T00:31:12.028Z,1027.35
2016-12-17T00:31:38.136Z,1027.32
2016-12-17T00:32:04.257Z,1027.35
2016-12-17T00:32:30.372Z,1027.3
2016-12-17T00:32:56.486Z,1027.32
2016-12-17T00:33:22.596Z,1027.31
2016-12-17T00:33:48.706Z,1027.35
2016-12-17T00:34:14.829Z,1027.34
2016-12-17T00:34:40.934Z,1027.34
2016-12-17T00:35:07.044Z,1027.31
2016-12-17T00:35:33.155Z,1027.31
2016-12-17T00:35:59.265Z,1027.33
2016-12-17T00:36:25.371Z,1027.33
2016-12-17T00:36:51.497Z,1027.32
2016-12-17T00:37:17.617Z,1027.38
2016-12-17T00:37:43.729Z,1027.37
2016-12-17T00:38:09.838Z,1027.48
2016-12-17T00:38:35.943Z,1027.43
2016-12-17T00:39:02.068Z,1027.43
2016-12-17T00:39:28.173Z,1027.39
2016-12-17T00:39:54.280Z,1027.43
2016-12-17T00:40:20.398Z,1027.43
2016-12-17T00:40:46.518Z,1027.44
2016-12-17T00:41:12.620Z,1027.47
2016-12-17T00:41:38.737Z,1027.46
2016-12-17T00:42:04.857Z,1027.45
2016-12-17T00:42:30.961Z,1027.47
2016-12-17T00:42:57.078Z,1027.46
2016-12-17T00:43:23.182Z,1027.46
2016-12-17T00:43:49.299Z,1027.48
2016-12-17T00:44:15.411Z,1027.46
2016-12-17T00:44:41.520Z,1027.45
2016-12-17T00:45:07.642Z,1027.48
2016-12-17T00:45:33.759Z,1027.44
2016-12-17T00:45:59.860Z,1027.45
2016-12-17T00:46:25.974Z,1027.42
2016-12-17T00:46:52.099Z,1027.44
2016-12-17T00:47:18.204Z,1027.43
2016-12-17T00:47:44.318Z,1027.46
2016-12-17T00:48:10.435Z,1027.48
2016-12-17T00:48:36.544Z,1027.49
2016-12-17T00:49:02.678Z,1027.52
2016-12-17T00:49:28.805Z,1027.49
2016-12-17T00:49:54.914Z,1027.48
2016-12-17T00:50:21.032Z,1027.49
2016-12-17T00:50:47.138Z,1027.5
2016-12-17T00:51:13.247Z,1027.48
2016-12-17T00:51:39.370Z,1027.51
2016-12-17T00:52:05.477Z,1027.45
2016-12-17T00:52:31.576Z,1027.5
2016-12-17T00:52:57.700Z,1027.43
2016-12-17T00:53:23.813Z,1027.49
2016-12-17T00:53:49.918Z,1027.46
2016-12-17T00:54:16.037Z,1027.44
2016-12-17T00:54:42.141Z,1027.46
2016-12-17T00:55:08.291Z,1027.48
2016-12-17T00:55:34.402Z,1027.51
2016-12-17T00:56:00.510Z,1027.51
2016-12-17T00:56:26.632Z,1027.53
2016-12-17T00:56:52.746Z,1027.51
2016-12-17T00:57:18.846Z,1027.52
2016-12-17T00:57:44.971Z,1027.51
2016-12-17T00:58:11.088Z,1027.5
2016-12-17T00:58:37.194Z,1027.5
2016-12-17T00:59:03.308Z,1027.53
2016-12-17T00:59:29.431Z,1027.51
2016-12-17T00:59:55.536Z,1027.46
2016-12-17T01:00:21.651Z,1027.54
2016-12-17T01:00:47.811Z,1027.53
2016-12-17T01:01:13.919Z,1027.53
2016-12-17T01:01:40.035Z,1027.5
2016-12-17T01:02:06.159Z,1027.5
2016-12-17T01:02:32.262Z,1027.46
2016-12-17T01:02:58.368Z,1027.45
2016-12-17T01:03:24.494Z,1027.46
2016-12-17T01:03:50.611Z,1027.49
2016-12-17T01:04:16.713Z,1027.49
2016-12-17T01:04:42.833Z,1027.51
2016-12-17T01:05:08.942Z,1027.53
2016-12-17T01:05:35.061Z,1027.55
2016-12-17T01:06:01.172Z,1027.54
2016-12-17T01:06:27.271Z,1027.58
2016-12-17T01:06:53.391Z,1027.57
2016-12-17T01:07:19.510Z,1027.55
2016-12-17T01:07:45.611Z,1027.58
2016-12-17T01:08:11.730Z,1027.56
2016-12-17T01:08:37.847Z,1027.55
2016-12-17T01:09:03.952Z,1027.55
2016-12-17T01:09:30.070Z,1027.54
2016-12-17T01:09:56.223Z,1027.56
2016-12-17T01:10:22.327Z,1027.57
2016-12-17T01:10:48.443Z,1027.55
2016-12-17T01:11:14.549Z,1027.61
2016-12-17T01:11:40.669Z,1027.55
2016-12-17T01:12:06.789Z,1027.57
2016-12-17T01:12:32.894Z,1027.54
2016-12-17T01:12:59.014Z,1027.53
2016-12-17T01:13:25.135Z,1027.49
2016-12-17T01:13:51.238Z,1027.52
2016-12-17T01:14:17.354Z,1027.54
2016-12-17T01:14:43.476Z,1027.5
2016-12-17T01:15:09.581Z,1027.55
2016-12-17T01:15:35.693Z,1027.54
2016-12-17T01:16:01.811Z,1027.61
2016-12-17T01:16:27.920Z,1027.6
2016-12-17T01:16:54.045Z,1027.59
2016-12-17T01:17:20.147Z,1027.59
2016-12-17T01:17:46.260Z,1027.63
2016-12-17T01:18:12.384Z,1027.62
2016-12-17T01:18:38.487Z,1027.6
2016-12-17T01:19:04.603Z,1027.65
2016-12-17T01:19:30.730Z,1027.57
2016-12-17T01:19:56.837Z,1027.59
2016-12-17T01:20:22.940Z,1027.57
2016-12-17T01:20:49.064Z,1027.6
2016-12-17T01:21:15.177Z,1027.58
2016-12-17T01:21:41.288Z,1027.58
2016-12-17T01:22:07.405Z,1027.58
2016-12-17T01:22:33.514Z,1027.57
2016-12-17T01:22:59.637Z,1027.55
2016-12-17T01:23:25.745Z,1027.57
2016-12-17T01:23:51.852Z,1027.6
2016-12-17T01:24:17.974Z,1027.58
2016-12-17T01:24:44.083Z,1027.64
2016-12-17T01:25:10.193Z,1027.59
2016-12-17T01:25:36.314Z,1027.62
2016-12-17T01:26:02.427Z,1027.64
2016-12-17T01:26:28.528Z,1027.65
2016-12-17T01:26:54.645Z,1027.65
2016-12-17T01:27:20.767Z,1027.66
2016-12-17T01:27:46.873Z,1027.65
2016-12-17T01:28:12.991Z,1027.71
2016-12-17T01:28:39.092Z,1027.71
2016-12-17T01:29:05.216Z,1027.72
2016-12-17T01:29:31.330Z,1027.71
2016-12-17T01:29:57.467Z,1027.73
2016-12-17T01:30:23.588Z,1027.71
2016-12-17T01:30:49.709Z,1027.69
2016-12-17T01:31:15.810Z,1027.64
2016-12-17T01:31:41.920Z,1027.67
2016-12-17T01:32:08.039Z,1027.65
2016-12-17T01:32:34.144Z,1027.65
2016-12-17T01:33:00.258Z,1027.66
2016-12-17T01:33:26.366Z,1027.64
2016-12-17T01:33:52.489Z,1027.68
2016-12-17T01:34:18.614Z,1027.66
2016-12-17T01:34:44.715Z,1027.72
2016-12-17T01:35:10.829Z,1027.71
2016-12-17T01:35:36.974Z,1027.71
2016-12-17T01:36:03.081Z,1027.7
2016-12-17T01:36:29.185Z,1027.67
2016-12-17T01:36:55.313Z,1027.71
2016-12-17T01:37:21.416Z,1027.7
2016-12-17T01:37:47.556Z,1027.71
2016-12-17T01:38:13.690Z,1027.67
2016-12-17T01:38:39.866Z,1027.67
2016-12-17T01:39:05.934Z,1027.68
2016-12-17T01:39:32.042Z,1027.7
2016-12-17T01:39:58.147Z,1027.74
2016-12-17T01:40:24.277Z,1027.7
2016-12-17T01:40:50.382Z,1027.74
2016-12-17T01:41:16.492Z,1027.74
2016-12-17T01:41:42.615Z,1027.73
2016-12-17T01:42:08.730Z,1027.79
2016-12-17T01:42:34.846Z,1027.81
2016-12-17T01:43:00.971Z,1027.77
2016-12-17T01:43:27.087Z,1027.77
2016-12-17T01:43:53.193Z,1027.74
2016-12-17T01:44:19.776Z,1027.75
2016-12-17T01:44:45.898Z,1027.75
2016-12-17T01:45:11.993Z,1027.72
2016-12-17T01:45:38.104Z,1027.7
2016-12-17T01:46:04.229Z,1027.73
2016-12-17T01:46:30.336Z,1027.71
2016-12-17T01:46:56.447Z,1027.72
2016-12-17T01:47:22.568Z,1027.73
2016-12-17T01:47:48.675Z,1027.72
2016-12-17T01:48:14.778Z,1027.72
2016-12-17T01:48:40.904Z,1027.74
2016-12-17T01:49:07.014Z,1027.71
2016-12-17T01:49:33.122Z,1027.69
2016-12-17T01:49:59.240Z,1027.69
2016-12-17T01:50:25.339Z,1027.65
2016-12-17T01:50:51.468Z,1027.65
2016-12-17T01:51:17.579Z,1027.65
2016-12-17T01:51:43.687Z,1027.67
2016-12-17T01:52:09.809Z,1027.68
2016-12-17T01:52:35.917Z,1027.68
2016-12-17T01:53:02.025Z,1027.68
2016-12-17T01:53:28.148Z,1027.64
2016-12-17T01:53:54.266Z,1027.66
2016-12-17T01:54:20.367Z,1027.69
2016-12-17T01:54:46.484Z,1027.69
2016-12-17T01:55:12.602Z,1027.7
2016-12-17T01:55:38.716Z,1027.77
2016-12-17T01:56:04.826Z,1027.78
2016-12-17T01:56:30.924Z,1027.77
2016-12-17T01:56:57.051Z,1027.79
2016-12-17T01:57:23.163Z,1027.77
2016-12-17T01:57:49.273Z,1027.76
2016-12-17T01:58:15.414Z,1027.8
2016-12-17T01:58:41.539Z,1027.8
2016-12-17T01:59:07.645Z,1027.77
2016-12-17T01:59:33.764Z,1027.77
2016-12-17T01:59:59.879Z,1027.76
2016-12-17T02:00:26.014Z,1027.81
2016-12-17T02:00:52.121Z,1027.8
2016-12-17T02:01:18.235Z,1027.82
2016-12-17T02:01:44.355Z,1027.81
2016-12-17T02:02:10.484Z,1027.77
2016-12-17T02:02:36.582Z,1027.79
2016-12-17T02:03:02.693Z,1027.81
2016-12-17T02:03:28.814Z,1027.84
2016-12-17T02:03:54.919Z,1027.83
2016-12-17T02:04:21.032Z,1027.82
2016-12-17T02:04:47.155Z,1027.83
2016-12-17T02:05:13.261Z,1027.77
2016-12-17T02:05:39.370Z,1027.8
2016-12-17T02:06:05.490Z,1027.8
2016-12-17T02:06:31.605Z,1027.81
2016-12-17T02:06:57.720Z,1027.79
2016-12-17T02:07:23.829Z,1027.82
2016-12-17T02:07:49.939Z,1027.85
2016-12-17T02:08:16.058Z,1027.86
2016-12-17T02:08:42.166Z,1027.84
2016-12-17T02:09:08.272Z,1027.88
2016-12-17T02:09:34.398Z,1027.89
2016-12-17T02:10:00.509Z,1027.85
2016-12-17T02:10:26.626Z,1027.86
2016-12-17T02:10:52.740Z,1027.89
2016-12-17T02:11:18.855Z,1027.85
2016-12-17T02:11:44.957Z,1027.88
2016-12-17T02:12:11.075Z,1027.88
2016-12-17T02:12:37.183Z,1027.89
2016-12-17T02:13:03.305Z,1027.9
2016-12-17T02:13:29.426Z,1027.9
2016-12-17T02:13:55.532Z,1027.98
2016-12-17T02:14:21.653Z,1027.97
2016-12-17T02:14:47.765Z,1028.02
2016-12-17T02:15:13.872Z,1028.01
2016-12-17T02:15:39.991Z,1027.97
2016-12-17T02:16:06.108Z,1027.99
2016-12-17T02:16:32.215Z,1028.02
2016-12-17T02:16:58.327Z,1028.05
2016-12-17T02:17:24.452Z,1028.04
2016-12-17T02:17:50.555Z,1028.05
2016-12-17T02:18:16.675Z,1028.07
2016-12-17T02:18:42.781Z,1028
2016-12-17T02:19:08.897Z,1028
2016-12-17T02:19:35.019Z,1028.01
2016-12-17T02:20:01.136Z,1027.95
2016-12-17T02:20:27.247Z,1027.99
2016-12-17T02:20:53.364Z,1028.01
2016-12-17T02:21:19.475Z,1028.05
2016-12-17T02:21:45.586Z,1028.06
2016-12-17T02:22:11.710Z,1028.03
2016-12-17T02:22:37.814Z,1028
2016-12-17T02:23:03.916Z,1028
2016-12-17T02:23:30.039Z,1027.97
2016-12-17T02:23:56.153Z,1027.95
2016-12-17T02:24:22.276Z,1028.01
2016-12-17T02:24:48.381Z,1027.98
2016-12-17T02:25:14.489Z,1028.01
2016-12-17T02:25:40.608Z,1027.97
2016-12-17T02:26:06.720Z,1027.96
2016-12-17T02:26:32.826Z,1027.9
2016-12-17T02:26:58.957Z,1027.89
2016-12-17T02:27:25.070Z,1027.88
2016-12-17T02:27:51.172Z,1027.9
2016-12-17T02:28:17.298Z,1027.89
2016-12-17T02:28:43.412Z,1027.92
2016-12-17T02:29:09.516Z,1027.94
2016-12-17T02:29:35.631Z,1027.97
2016-12-17T02:30:01.757Z,1027.97
2016-12-17T02:30:27.854Z,1028.02
2016-12-17T02:30:53.967Z,1028.02
2016-12-17T02:31:20.089Z,1028.01
2016-12-17T02:31:46.189Z,1028
2016-12-17T02:32:12.304Z,1027.96
2016-12-17T02:32:38.424Z,1027.96
2016-12-17T02:33:04.529Z,1027.95
2016-12-17T02:33:30.634Z,1028.01
2016-12-17T02:33:56.763Z,1028.01
2016-12-17T02:34:22.876Z,1028.02
2016-12-17T02:34:48.992Z,1028.01
2016-12-17T02:35:15.096Z,1027.97
2016-12-17T02:35:41.209Z,1027.97
2016-12-17T02:36:07.331Z,1027.95
2016-12-17T02:36:33.446Z,1027.93
2016-12-17T02:36:59.544Z,1027.94
2016-12-17T02:37:25.669Z,1027.91
2016-12-17T02:37:51.775Z,1027.89
2016-12-17T02:38:17.886Z,1027.86
2016-12-17T02:38:44.007Z,1027.89
2016-12-17T02:39:10.129Z,1027.95
2016-12-17T02:39:36.231Z,1027.96
2016-12-17T02:40:02.349Z,1028.09
2016-12-17T02:40:28.456Z,1028.05
2016-12-17T02:40:54.578Z,1028.04
2016-12-17T02:41:20.681Z,1028.04
2016-12-17T02:41:46.832Z,1028
2016-12-17T02:42:12.951Z,1028
2016-12-17T02:42:39.063Z,1028
2016-12-17T02:43:05.170Z,1027.97
2016-12-17T02:43:31.284Z,1027.96
2016-12-17T02:43:57.402Z,1027.97
2016-12-17T02:44:23.505Z,1027.96
2016-12-17T02:44:49.624Z,1027.98
2016-12-17T02:45:15.751Z,1028
2016-12-17T02:45:41.851Z,1027.99
2016-12-17T02:46:07.973Z,1028.01
2016-12-17T02:46:34.082Z,1028
2016-12-17T02:47:00.197Z,1028.02
2016-12-17T02:47:26.321Z,1028.02
2016-12-17T02:47:52.424Z,1028.04
2016-12-17T02:48:18.541Z,1028.08
2016-12-17T02:48:44.662Z,1028.07
2016-12-17T02:49:10.768Z,1028.04
2016-12-17T02:49:36.883Z,1028.08
2016-12-17T02:50:03.005Z,1028.05
2016-12-17T02:50:29.111Z,1028.07
2016-12-17T02:50:55.211Z,1028.06
2016-12-17T02:51:21.333Z,1028.07
2016-12-17T02:51:47.448Z,1028.06
2016-12-17T02:52:13.563Z,1028.02
2016-12-17T02:52:39.675Z,1028.03
2016-12-17T02:53:05.789Z,1028.02
2016-12-17T02:53:31.916Z,1028.06
2016-12-17T02:53:58.017Z,1028.04
2016-12-17T02:54:24.125Z,1028.03
2016-12-17T02:54:50.245Z,1028.07
2016-12-17T02:55:16.353Z,1028.06
2016-12-17T02:55:42.459Z,1028.07
2016-12-17T02:56:08.581Z,1028.02
2016-12-17T02:56:34.695Z,1028.08
2016-12-17T02:57:00.837Z,1028.03
2016-12-17T02:57:26.946Z,1028.01
2016-12-17T02:57:53.057Z,1027.99
2016-12-17T02:58:19.178Z,1028.04
2016-12-17T02:58:45.288Z,1028.01
2016-12-17T02:59:11.391Z,1027.97
2016-12-17T02:59:37.517Z,1027.98
2016-12-17T03:00:03.633Z,1027.96
2016-12-17T03:00:29.743Z,1027.95
2016-12-17T03:00:55.876Z,1027.94
2016-12-17T03:01:21.991Z,1028
2016-12-17T03:01:48.085Z,1027.99
2016-12-17T03:02:14.200Z,1028
2016-12-17T03:02:40.309Z,1028.02
2016-12-17T03:03:06.429Z,1028.03
2016-12-17T03:03:32.541Z,1028.04
2016-12-17T03:03:58.647Z,1027.99
2016-12-17T03:04:24.762Z,1027.99
2016-12-17T03:04:50.910Z,1027.96
2016-12-17T03:05:16.989Z,1027.98
2016-12-17T03:05:43.100Z,1027.99
2016-12-17T03:06:09.219Z,1028.02
2016-12-17T03:06:35.325Z,1028
2016-12-17T03:07:01.433Z,1027.98
2016-12-17T03:07:27.549Z,1028.01
2016-12-17T03:07:53.659Z,1028.01
2016-12-17T03:08:19.777Z,1028.03
2016-12-17T03:08:45.879Z,1028.02
2016-12-17T03:09:12.002Z,1028
2016-12-17T03:09:38.121Z,1028.03
2016-12-17T03:10:04.224Z,1027.96
2016-12-17T03:10:30.359Z,1027.95
2016-12-17T03:10:56.485Z,1027.97
2016-12-17T03:11:22.595Z,1027.97
2016-12-17T03:11:48.704Z,1027.97
2016-12-17T03:12:14.878Z,1027.99
2016-12-17T03:12:40.992Z,1027.96
2016-12-17T03:13:07.095Z,1027.96
2016-12-17T03:13:33.216Z,1027.97
2016-12-17T03:13:59.329Z,1027.99
2016-12-17T03:14:25.436Z,1027.98
2016-12-17T03:14:51.547Z,1028.02
2016-12-17T03:15:17.674Z,1028
2016-12-17T03:15:43.770Z,1028.01
2016-12-17T03:16:09.886Z,1028.01
2016-12-17T03:16:36.003Z,1028.01
2016-12-17T03:17:02.110Z,1027.99
2016-12-17T03:17:28.217Z,1027.95
2016-12-17T03:17:54.346Z,1027.99
2016-12-17T03:18:20.448Z,1027.98
2016-12-17T03:18:46.551Z,1027.98
2016-12-17T03:19:12.671Z,1027.97
2016-12-17T03:19:38.784Z,1027.97
2016-12-17T03:20:04.903Z,1028
2016-12-17T03:20:31.009Z,1028
2016-12-17T03:20:57.119Z,1027.97
2016-12-17T03:21:23.245Z,1027.98
2016-12-17T03:21:49.352Z,1028.03
2016-12-17T03:22:15.452Z,1027.98
2016-12-17T03:22:41.583Z,1028.03
2016-12-17T03:23:07.690Z,1028.02
2016-12-17T03:23:33.793Z,1028.01
2016-12-17T03:23:59.912Z,1027.98
2016-12-17T03:24:26.022Z,1028
2016-12-17T03:24:52.136Z,1027.97
2016-12-17T03:25:18.246Z,1027.95
2016-12-17T03:25:44.354Z,1027.98
2016-12-17T03:26:10.480Z,1027.99
2016-12-17T03:26:36.592Z,1028.03
2016-12-17T03:27:02.691Z,1027.99
2016-12-17T03:27:28.815Z,1028.05
2016-12-17T03:27:54.934Z,1028.04
2016-12-17T03:28:21.035Z,1028.08
2016-12-17T03:28:47.153Z,1028.07
2016-12-17T03:29:13.294Z,1028.04
2016-12-17T03:29:39.399Z,1028.01
2016-12-17T03:30:05.513Z,1028.02
2016-12-17T03:30:31.628Z,1027.97
2016-12-17T03:30:57.747Z,1027.99
2016-12-17T03:31:23.856Z,1027.97
2016-12-17T03:31:49.967Z,1027.95
2016-12-17T03:32:16.083Z,1027.97
2016-12-17T03:32:42.211Z,1027.93
2016-12-17T03:33:08.307Z,1027.97
2016-12-17T03:33:34.422Z,1027.99
2016-12-17T03:34:00.541Z,1027.96
2016-12-17T03:34:26.643Z,1027.99
2016-12-17T03:34:52.750Z,1028
2016-12-17T03:35:18.874Z,1027.99
2016-12-17T03:35:44.985Z,1027.99
2016-12-17T03:36:11.108Z,1027.97
2016-12-17T03:36:37.207Z,1027.97
2016-12-17T03:37:03.322Z,1028.01
2016-12-17T03:37:29.438Z,1027.98
2016-12-17T03:37:55.543Z,1027.99
2016-12-17T03:38:21.655Z,1027.98
2016-12-17T03:38:47.807Z,1028
2016-12-17T03:39:13.910Z,1028.01
2016-12-17T03:39:40.012Z,1028.03
2016-12-17T03:40:06.139Z,1027.98
2016-12-17T03:40:32.253Z,1027.99
2016-12-17T03:40:58.361Z,1028.02
2016-12-17T03:41:24.493Z,1028
2016-12-17T03:41:50.598Z,1027.98
2016-12-17T03:42:16.727Z,1027.97
2016-12-17T03:42:42.888Z,1028.02
2016-12-17T03:43:08.991Z,1027.95
2016-12-17T03:43:35.115Z,1028.02
2016-12-17T03:44:01.228Z,1028
2016-12-17T03:44:27.331Z,1028
2016-12-17T03:44:53.454Z,1028
2016-12-17T03:45:19.571Z,1027.99
2016-12-17T03:45:45.680Z,1028.02
2016-12-17T03:46:11.795Z,1028
2016-12-17T03:46:37.912Z,1028.01
2016-12-17T03:47:04.023Z,1028.01
2016-12-17T03:47:30.132Z,1027.98
2016-12-17T03:47:56.234Z,1027.99
2016-12-17T03:48:22.354Z,1027.96
2016-12-17T03:48:48.467Z,1027.97
2016-12-17T03:49:14.569Z,1027.97
2016-12-17T03:49:40.687Z,1027.97
2016-12-17T03:50:06.826Z,1027.98
2016-12-17T03:50:32.946Z,1027.99
2016-12-17T03:50:59.059Z,1027.97
2016-12-17T03:51:25.181Z,1027.97
2016-12-17T03:51:51.288Z,1027.98
2016-12-17T03:52:17.403Z,1027.95
2016-12-17T03:52:43.512Z,1027.95
2016-12-17T03:53:09.626Z,1027.97
2016-12-17T03:53:35.752Z,1027.93
2016-12-17T03:54:01.848Z,1027.96
2016-12-17T03:54:27.964Z,1027.93
2016-12-17T03:54:54.089Z,1027.95
2016-12-17T03:55:20.191Z,1027.95
2016-12-17T03:55:46.297Z,1027.96
2016-12-17T03:56:12.684Z,1027.95
2016-12-17T03:56:38.791Z,1027.98
2016-12-17T03:57:04.895Z,1027.95
2016-12-17T03:57:31.015Z,1027.93
2016-12-17T03:57:57.123Z,1027.97
2016-12-17T03:58:23.230Z,1027.96
2016-12-17T03:58:49.352Z,1027.96
2016-12-17T03:59:15.465Z,1027.98
2016-12-17T03:59:41.569Z,1027.97
2016-12-17T04:00:07.688Z,1027.96
2016-12-17T04:00:33.805Z,1027.97
2016-12-17T04:00:59.910Z,1027.98
2016-12-17T04:01:26.028Z,1027.99
2016-12-17T04:01:52.147Z,1028
2016-12-17T04:02:18.253Z,1027.99
2016-12-17T04:02:44.365Z,1028.01
2016-12-17T04:03:10.489Z,1027.97
2016-12-17T04:03:36.602Z,1027.95
2016-12-17T04:04:02.730Z,1027.93
2016-12-17T04:04:28.830Z,1027.95
2016-12-17T04:04:54.941Z,1027.98
2016-12-17T04:05:21.065Z,1028.01
2016-12-17T04:05:47.170Z,1028.03
2016-12-17T04:06:13.284Z,1028.05
2016-12-17T04:06:39.402Z,1028.07
2016-12-17T04:07:05.511Z,1028.06
2016-12-17T04:07:31.614Z,1028.06
2016-12-17T04:07:57.742Z,1028.1
2016-12-17T04:08:23.848Z,1028.09
2016-12-17T04:08:49.955Z,1028.08
2016-12-17T04:09:16.082Z,1028.06
2016-12-17T04:09:42.176Z,1028.11
2016-12-17T04:10:08.308Z,1028.11
2016-12-17T04:10:34.407Z,1028.12
2016-12-17T04:11:00.517Z,1028.14
2016-12-17T04:11:26.639Z,1028.15
2016-12-17T04:11:52.752Z,1028.12
2016-12-17T04:12:18.859Z,1028.13
2016-12-17T04:12:44.981Z,1028.13
2016-12-17T04:13:11.095Z,1028.11
2016-12-17T04:13:37.200Z,1028.11
2016-12-17T04:14:03.315Z,1028.11
2016-12-17T04:14:29.448Z,1028.09
2016-12-17T04:14:55.563Z,1028.11
2016-12-17T04:15:21.671Z,1028.14
2016-12-17T04:15:47.775Z,1028.08
2016-12-17T04:16:13.896Z,1028.12
2016-12-17T04:16:40.009Z,1028.07
2016-12-17T04:17:06.117Z,1028.11
2016-12-17T04:17:32.233Z,1028.12
2016-12-17T04:17:58.355Z,1028.09
2016-12-17T04:18:24.459Z,1028.13
2016-12-17T04:18:50.576Z,1028.11
2016-12-17T04:19:16.696Z,1028.11
2016-12-17T04:19:42.804Z,1028.13
2016-12-17T04:20:08.914Z,1028.15
2016-12-17T04:20:35.029Z,1028.13
2016-12-17T04:21:01.145Z,1028.17
2016-12-17T04:21:27.270Z,1028.2
2016-12-17T04:21:53.374Z,1028.17
2016-12-17T04:22:19.492Z,1028.18
2016-12-17T04:22:45.613Z,1028.2
2016-12-17T04:23:11.721Z,1028.21
2016-12-17T04:23:37.828Z,1028.21
2016-12-17T04:24:03.956Z,1028.22
2016-12-17T04:24:30.064Z,1028.24
2016-12-17T04:24:56.170Z,1028.22
2016-12-17T04:25:22.293Z,1028.22
2016-12-17T04:25:48.398Z,1028.25
2016-12-17T04:26:14.516Z,1028.24
2016-12-17T04:26:40.616Z,1028.25
2016-12-17T04:27:06.729Z,1028.28
2016-12-17T04:27:32.844Z,1028.26
2016-12-17T04:27:58.952Z,1028.27
2016-12-17T04:28:25.060Z,1028.28
2016-12-17T04:28:51.182Z,1028.29
2016-12-17T04:29:17.293Z,1028.28
2016-12-17T04:29:43.394Z,1028.27
2016-12-17T04:30:09.516Z,1028.28
2016-12-17T04:30:35.631Z,1028.26
2016-12-17T04:31:01.735Z,1028.26
2016-12-17T04:31:27.854Z,1028.25
2016-12-17T04:31:53.958Z,1028.26
2016-12-17T04:32:20.086Z,1028.22
2016-12-17T04:32:46.194Z,1028.2
2016-12-17T04:33:12.299Z,1028.21
2016-12-17T04:33:38.418Z,1028.25
2016-12-17T04:34:04.531Z,1028.23
2016-12-17T04:34:30.634Z,1028.21
2016-12-17T04:34:56.754Z,1028.23
2016-12-17T04:35:22.877Z,1028.2
2016-12-17T04:35:48.979Z,1028.21
2016-12-17T04:36:15.088Z,1028.19
2016-12-17T04:36:41.208Z,1028.21
2016-12-17T04:37:07.316Z,1028.2
2016-12-17T04:37:33.437Z,1028.15
2016-12-17T04:37:59.589Z,1028.17
2016-12-17T04:38:25.706Z,1028.18
2016-12-17T04:38:51.824Z,1028.16
2016-12-17T04:39:17.927Z,1028.18
2016-12-17T04:39:44.037Z,1028.14
2016-12-17T04:40:10.162Z,1028.16
2016-12-17T04:40:36.263Z,1028.15
2016-12-17T04:41:02.372Z,1028.16
2016-12-17T04:41:28.489Z,1028.13
2016-12-17T04:41:54.602Z,1028.14
2016-12-17T04:42:20.705Z,1028.14
2016-12-17T04:42:46.821Z,1028.15
2016-12-17T04:43:12.933Z,1028.18
2016-12-17T04:43:39.038Z,1028.2
2016-12-17T04:44:05.156Z,1028.19
2016-12-17T04:44:31.269Z,1028.24
2016-12-17T04:44:57.374Z,1028.23
2016-12-17T04:45:23.494Z,1028.27
2016-12-17T04:45:49.622Z,1028.23
2016-12-17T04:46:15.719Z,1028.25
2016-12-17T04:46:41.831Z,1028.29
2016-12-17T04:47:07.956Z,1028.26
2016-12-17T04:47:34.062Z,1028.3
2016-12-17T04:48:00.176Z,1028.27
2016-12-17T04:48:26.285Z,1028.32
2016-12-17T04:48:52.399Z,1028.33
2016-12-17T04:49:18.524Z,1028.32
2016-12-17T04:49:44.627Z,1028.29
2016-12-17T04:50:10.739Z,1028.31
2016-12-17T04:50:36.856Z,1028.32
2016-12-17T04:51:02.966Z,1028.31
2016-12-17T04:51:29.075Z,1028.3
2016-12-17T04:51:55.195Z,1028.23
2016-12-17T04:52:21.306Z,1028.25
2016-12-17T04:52:47.413Z,1028.25
2016-12-17T04:53:13.631Z,1028.24
2016-12-17T04:53:39.739Z,1028.25
2016-12-17T04:54:05.858Z,1028.21
2016-12-17T04:54:31.959Z,1028.2
2016-12-17T04:54:58.069Z,1028.21
2016-12-17T04:55:24.192Z,1028.21
2016-12-17T04:55:50.297Z,1028.23
2016-12-17T04:56:16.404Z,1028.2
2016-12-17T04:56:42.531Z,1028.27
2016-12-17T04:57:08.639Z,1028.25
2016-12-17T04:57:34.745Z,1028.22
2016-12-17T04:58:00.867Z,1028.24
2016-12-17T04:58:26.979Z,1028.23
2016-12-17T04:58:53.088Z,1028.21
2016-12-17T04:59:19.204Z,1028.23
2016-12-17T04:59:45.305Z,1028.27
2016-12-17T05:00:11.430Z,1028.24
2016-12-17T05:00:37.540Z,1028.27
2016-12-17T05:01:03.645Z,1028.26
2016-12-17T05:01:29.764Z,1028.27
2016-12-17T05:01:55.882Z,1028.27
2016-12-17T05:02:21.987Z,1028.29
2016-12-17T05:02:48.108Z,1028.28
2016-12-17T05:03:14.229Z,1028.27
2016-12-17T05:03:40.331Z,1028.31
2016-12-17T05:04:06.444Z,1028.32
2016-12-17T05:04:32.561Z,1028.37
2016-12-17T05:04:58.669Z,1028.33
2016-12-17T05:05:24.781Z,1028.38
2016-12-17T05:05:50.889Z,1028.37
2016-12-17T05:06:17.005Z,1028.35
2016-12-17T05:06:43.128Z,1028.36
2016-12-17T05:07:09.226Z,1028.37
2016-12-17T05:07:35.335Z,1028.33
2016-12-17T05:08:01.460Z,1028.37
2016-12-17T05:08:27.608Z,1028.39
2016-12-17T05:08:53.719Z,1028.4
2016-12-17T05:09:19.836Z,1028.43
2016-12-17T05:09:45.945Z,1028.44
2016-12-17T05:10:12.046Z,1028.48
2016-12-17T05:10:38.167Z,1028.47
2016-12-17T05:11:04.283Z,1028.41
2016-12-17T05:11:30.398Z,1028.46
2016-12-17T05:11:56.503Z,1028.47
2016-12-17T05:12:22.613Z,1028.47
2016-12-17T05:12:48.735Z,1028.46
2016-12-17T05:13:14.844Z,1028.42
2016-12-17T05:13:40.947Z,1028.41
2016-12-17T05:14:07.070Z,1028.43
2016-12-17T05:14:33.181Z,1028.42
2016-12-17T05:14:59.285Z,1028.43
2016-12-17T05:15:25.408Z,1028.43
2016-12-17T05:15:51.520Z,1028.41
2016-12-17T05:16:17.635Z,1028.4
2016-12-17T05:16:43.745Z,1028.42
2016-12-17T05:17:09.855Z,1028.43
2016-12-17T05:17:35.976Z,1028.4